Time;durP1;ratioP1;P1;durP2;ratioP2;P2;SDS_P1;SDS_P2;PMS_P1;PMS_P2;Temp;Humidity;BMP_temperature;BMP_pressure;BME280_temperature;BME280_humidity;BME280_pressure;Samples;Min_cycle;Max_cycle;Signal;HPM_P1;HPM_P2
2024/02/17 00:00:05;;;;;;;35.97;20.50;;;7.70;99.90;;;;;;7383723;19;20078;-69
2024/02/17 00:02:32;;;;;;;42.85;20.95;;;7.70;99.90;;;;;;7388942;19;20007;-70
2024/02/17 00:04:59;;;;;;;45.67;22.48;;;7.70;99.90;;;;;;7374190;19;20022;-70
2024/02/17 00:07:25;;;;;;;46.40;22.85;;;7.60;99.90;;;;;;7377687;19;20440;-70
2024/02/17 00:09:52;;;;;;;43.33;23.27;;;7.60;99.90;;;;;;7375832;19;20157;-70
2024/02/17 00:12:21;;;;;;;50.03;22.60;;;7.60;99.90;;;;;;7382823;19;20020;-69
2024/02/17 00:14:47;;;;;;;50.92;23.83;;;7.60;99.90;;;;;;7385105;19;20015;-70
2024/02/17 00:17:13;;;;;;;47.55;23.17;;;7.60;99.90;;;;;;7383800;19;20024;-70
2024/02/17 00:19:40;;;;;;;52.45;24.05;;;7.70;99.90;;;;;;7378406;19;20376;-70
2024/02/17 00:22:06;;;;;;;48.95;24.05;;;7.70;99.90;;;;;;7374475;19;20014;-70
2024/02/17 00:24:32;;;;;;;48.97;23.13;;;7.80;99.90;;;;;;7374985;19;20026;-70
2024/02/17 00:26:59;;;;;;;45.33;24.45;;;7.80;99.90;;;;;;7380665;19;20101;-70
2024/02/17 00:29:25;;;;;;;53.25;23.95;;;7.90;99.90;;;;;;7375829;19;20030;-70
2024/02/17 00:31:52;;;;;;;51.58;24.65;;;7.90;99.90;;;;;;7381693;19;20379;-71
2024/02/17 00:34:23;;;;;;;49.50;24.27;;;7.90;99.90;;;;;;7392742;19;20398;-70
2024/02/17 00:36:49;;;;;;;45.15;24.95;;;8.00;99.90;;;;;;7394609;19;20367;-71
2024/02/17 00:39:15;;;;;;;48.15;23.38;;;8.00;99.90;;;;;;7378435;19;20019;-71
2024/02/17 00:41:42;;;;;;;48.70;24.63;;;8.00;99.90;;;;;;7390197;19;20023;-69
2024/02/17 00:44:09;;;;;;;49.88;25.02;;;8.00;99.90;;;;;;7384336;19;20026;-70
2024/02/17 00:46:35;;;;;;;53.80;26.52;;;8.00;99.90;;;;;;7379011;19;20377;-71
2024/02/17 00:49:01;;;;;;;43.28;24.40;;;8.10;99.90;;;;;;7371706;19;20370;-70
2024/02/17 00:51:28;;;;;;;43.17;23.02;;;8.00;99.90;;;;;;7369161;19;20421;-71
2024/02/17 00:53:54;;;;;;;47.55;24.38;;;8.10;99.90;;;;;;7376575;19;20824;-70
2024/02/17 00:56:23;;;;;;;42.53;22.38;;;8.10;99.90;;;;;;7372580;19;20024;-71
2024/02/17 00:58:50;;;;;;;47.15;24.15;;;8.10;99.90;;;;;;7375578;19;20018;-71
2024/02/17 01:01:17;;;;;;;47.03;24.10;;;8.10;99.90;;;;;;7376690;19;20014;-71
2024/02/17 01:03:44;;;;;;;49.03;24.75;;;8.20;99.90;;;;;;7373815;19;20082;-71
2024/02/17 01:06:11;;;;;;;48.15;25.25;;;8.20;99.90;;;;;;7374708;19;20548;-70
2024/02/17 01:08:38;;;;;;;47.85;25.48;;;8.20;99.90;;;;;;7372589;19;20015;-71
2024/02/17 01:11:05;;;;;;;47.25;24.52;;;8.20;99.90;;;;;;7377652;19;20803;-71
2024/02/17 01:13:32;;;;;;;50.45;24.33;;;8.30;99.90;;;;;;7382946;19;20109;-71
2024/02/17 01:15:59;;;;;;;54.15;25.80;;;8.30;99.90;;;;;;7383020;19;20360;-71
2024/02/17 01:18:26;;;;;;;45.22;25.23;;;8.30;99.90;;;;;;7391049;19;20053;-71
2024/02/17 01:20:53;;;;;;;49.97;24.63;;;8.30;99.90;;;;;;7382323;19;20035;-71
2024/02/17 01:23:20;;;;;;;48.83;24.80;;;8.30;99.90;;;;;;7392617;19;20087;-71
2024/02/17 01:25:47;;;;;;;48.58;25.98;;;8.30;99.90;;;;;;7378924;19;20042;-70
2024/02/17 01:28:14;;;;;;;50.78;25.38;;;8.30;99.90;;;;;;7393494;19;20090;-70
2024/02/17 01:30:41;;;;;;;49.90;25.17;;;8.40;99.90;;;;;;7398054;19;20582;-71
2024/02/17 01:33:08;;;;;;;49.35;26.45;;;8.40;99.90;;;;;;7380888;19;20160;-71
2024/02/17 01:35:35;;;;;;;49.75;25.85;;;8.40;99.90;;;;;;7387064;19;20020;-70
2024/02/17 01:38:02;;;;;;;56.13;27.13;;;8.40;99.90;;;;;;7390071;19;20610;-70
2024/02/17 01:40:29;;;;;;;48.92;25.00;;;8.50;99.90;;;;;;7386123;19;20026;-72
2024/02/17 01:42:57;;;;;;;54.28;25.02;;;8.50;99.90;;;;;;7377683;19;20018;-72
2024/02/17 01:45:24;;;;;;;46.05;24.02;;;8.50;99.90;;;;;;7380589;19;20018;-71
2024/02/17 01:47:50;;;;;;;52.88;24.27;;;8.50;99.90;;;;;;7386209;19;20022;-71
2024/02/17 01:50:17;;;;;;;49.40;24.60;;;8.50;99.90;;;;;;7393999;19;20011;-70
2024/02/17 01:52:46;;;;;;;44.22;24.20;;;8.50;99.90;;;;;;7381358;19;20487;-71
2024/02/17 01:55:16;;;;;;;45.67;24.55;;;8.60;99.90;;;;;;7380256;19;20891;-72
2024/02/17 01:57:44;;;;;;;41.00;23.45;;;8.60;99.90;;;;;;7380732;19;20078;-72
2024/02/17 02:00:13;;;;;;;42.00;22.83;;;8.60;99.90;;;;;;7377202;19;20022;-72
2024/02/17 02:02:43;;;;;;;49.53;24.75;;;8.60;99.90;;;;;;7377094;19;20023;-72
2024/02/17 02:05:09;;;;;;;40.40;22.27;;;8.60;99.90;;;;;;7378737;19;20018;-72
2024/02/17 02:07:36;;;;;;;42.45;21.95;;;8.60;99.90;;;;;;7391751;19;20042;-71
2024/02/17 02:10:04;;;;;;;45.25;23.02;;;8.60;99.90;;;;;;7392317;19;20098;-71
2024/02/17 02:12:36;;;;;;;43.88;22.27;;;8.50;99.90;;;;;;7395664;19;20086;-71
2024/02/17 02:15:09;;;;;;;42.83;22.15;;;8.50;99.90;;;;;;7386460;19;20043;-71
2024/02/17 02:17:36;;;;;;;40.72;20.88;;;8.50;99.90;;;;;;7376356;19;20090;-72
2024/02/17 02:20:03;;;;;;;37.70;22.30;;;8.50;99.90;;;;;;7377396;19;20513;-71
2024/02/17 02:22:33;;;;;;;40.83;21.15;;;8.60;99.90;;;;;;7373843;19;20035;-71
2024/02/17 02:25:05;;;;;;;37.28;21.02;;;8.60;99.90;;;;;;7382421;19;20023;-71
2024/02/17 02:27:31;;;;;;;40.22;21.63;;;8.60;99.90;;;;;;7375303;19;20078;-72
2024/02/17 02:29:59;;;;;;;44.08;21.63;;;8.60;99.90;;;;;;7377628;19;20636;-71
2024/02/17 02:32:26;;;;;;;43.13;22.83;;;8.60;99.90;;;;;;7374482;19;20052;-71
2024/02/17 02:34:53;;;;;;;45.63;20.75;;;8.70;99.90;;;;;;7381275;19;20318;-71
2024/02/17 02:37:20;;;;;;;40.88;21.67;;;8.70;99.90;;;;;;7371401;19;20025;-71
2024/02/17 02:39:46;;;;;;;42.83;21.40;;;8.70;99.90;;;;;;7376832;19;20025;-71
2024/02/17 02:42:15;;;;;;;39.17;20.20;;;8.70;99.90;;;;;;7374264;19;20014;-71
2024/02/17 02:44:42;;;;;;;40.65;19.83;;;8.70;99.90;;;;;;7382003;19;20310;-71
2024/02/17 02:47:09;;;;;;;44.85;21.85;;;8.80;99.90;;;;;;7378111;19;20528;-72
2024/02/17 02:49:36;;;;;;;38.97;19.55;;;8.80;99.90;;;;;;7376845;19;20857;-72
2024/02/17 02:52:03;;;;;;;45.35;20.08;;;8.80;99.90;;;;;;7375278;19;20039;-72
2024/02/17 02:54:30;;;;;;;39.25;21.48;;;8.80;99.90;;;;;;7380536;19;20545;-71
2024/02/17 02:56:57;;;;;;;40.75;20.52;;;8.80;99.90;;;;;;7380310;19;20065;-72
2024/02/17 02:59:24;;;;;;;38.67;20.98;;;8.80;99.90;;;;;;7378377;19;20039;-72
2024/02/17 03:01:51;;;;;;;39.67;20.05;;;8.80;99.90;;;;;;7376777;19;20029;-72
2024/02/17 03:04:18;;;;;;;34.15;19.15;;;8.80;99.90;;;;;;7379041;19;20068;-72
2024/02/17 03:06:45;;;;;;;35.42;20.55;;;8.80;99.90;;;;;;7376730;19;20626;-72
2024/02/17 03:09:13;;;;;;;39.08;20.42;;;8.90;99.90;;;;;;7375909;19;20594;-72
2024/02/17 03:11:47;;;;;;;38.35;19.23;;;8.90;99.90;;;;;;7378381;19;20018;-73
2024/02/17 03:14:15;;;;;;;34.65;18.90;;;8.90;99.90;;;;;;7374614;19;20028;-71
2024/02/17 03:16:41;;;;;;;32.85;18.80;;;8.90;99.90;;;;;;7375542;19;20641;-72
2024/02/17 03:19:08;;;;;;;29.05;18.60;;;8.80;99.90;;;;;;7377904;19;20052;-72
2024/02/17 03:21:34;;;;;;;37.22;19.08;;;8.90;99.90;;;;;;7376804;19;20037;-72
2024/02/17 03:24:00;;;;;;;29.88;18.52;;;8.90;99.90;;;;;;7370585;19;20026;-72
2024/02/17 03:26:27;;;;;;;33.47;20.52;;;8.90;99.90;;;;;;7375687;19;20038;-72
2024/02/17 03:28:53;;;;;;;33.00;19.05;;;8.90;99.90;;;;;;7374573;19;20153;-72
2024/02/17 03:31:19;;;;;;;34.92;18.90;;;8.90;99.90;;;;;;7376288;19;20021;-73
2024/02/17 03:33:45;;;;;;;36.80;19.98;;;8.90;99.90;;;;;;7380417;19;20015;-72
2024/02/17 03:36:11;;;;;;;35.50;19.38;;;8.90;99.90;;;;;;7383245;19;20035;-72
2024/02/17 03:38:37;;;;;;;35.78;20.95;;;8.90;99.90;;;;;;7376411;19;20398;-72
2024/02/17 03:41:05;;;;;;;28.67;18.92;;;8.90;99.90;;;;;;7375612;19;20026;-72
2024/02/17 03:43:31;;;;;;;32.80;18.52;;;8.90;99.90;;;;;;7379381;19;20486;-72
2024/02/17 03:45:57;;;;;;;34.08;18.90;;;8.90;99.90;;;;;;7372989;19;20038;-72
2024/02/17 03:48:24;;;;;;;30.77;18.30;;;8.90;99.90;;;;;;7372985;19;20270;-72
2024/02/17 03:50:50;;;;;;;30.77;16.95;;;8.90;99.90;;;;;;7386624;19;20110;-72
2024/02/17 03:53:20;;;;;;;26.65;16.83;;;8.90;99.90;;;;;;7383580;19;20129;-72
2024/02/17 03:55:46;;;;;;;34.33;18.58;;;8.80;99.90;;;;;;7375396;19;20743;-72
2024/02/17 03:58:12;;;;;;;28.95;15.10;;;8.90;99.90;;;;;;7374444;19;20022;-72
2024/02/17 04:00:39;;;;;;;29.35;15.73;;;8.80;99.90;;;;;;7395195;19;20023;-71
2024/02/17 04:03:05;;;;;;;28.20;16.98;;;8.80;99.90;;;;;;7383501;19;20011;-72
2024/02/17 04:05:31;;;;;;;30.33;15.52;;;8.80;99.90;;;;;;7373439;19;20093;-72
2024/02/17 04:07:57;;;;;;;24.27;15.35;;;8.80;99.90;;;;;;7372141;19;20018;-73
2024/02/17 04:10:24;;;;;;;28.15;15.70;;;8.80;99.90;;;;;;7372114;19;20023;-72
2024/02/17 04:12:51;;;;;;;27.83;15.43;;;8.70;99.90;;;;;;7371850;19;20124;-72
2024/02/17 04:15:21;;;;;;;25.92;15.63;;;8.70;99.90;;;;;;7372250;19;20027;-73
2024/02/17 04:17:48;;;;;;;24.55;15.45;;;8.80;99.90;;;;;;7370541;19;20019;-72
2024/02/17 04:20:18;;;;;;;30.10;16.40;;;8.70;99.90;;;;;;7374170;19;20014;-71
2024/02/17 04:22:45;;;;;;;20.67;15.25;;;8.70;99.90;;;;;;7370656;19;20040;-73
2024/02/17 04:25:13;;;;;;;26.83;16.75;;;8.70;99.90;;;;;;7365788;19;20022;-72
2024/02/17 04:27:40;;;;;;;23.13;15.55;;;8.70;99.90;;;;;;7369866;19;20112;-72
2024/02/17 04:30:07;;;;;;;25.20;14.10;;;8.70;99.90;;;;;;7369017;19;20068;-72
2024/02/17 04:32:34;;;;;;;26.42;15.77;;;8.70;99.90;;;;;;7371554;19;20027;-72
2024/02/17 04:35:03;;;;;;;29.60;15.15;;;8.60;99.90;;;;;;7378984;19;20015;-72
2024/02/17 04:37:30;;;;;;;21.33;14.10;;;8.60;99.90;;;;;;7373255;19;20022;-72
2024/02/17 04:39:56;;;;;;;23.13;14.27;;;8.60;99.90;;;;;;7381113;19;20015;-71
2024/02/17 04:42:22;;;;;;;25.48;14.88;;;8.60;99.90;;;;;;7388365;19;20030;-72
2024/02/17 04:44:48;;;;;;;26.48;16.67;;;8.60;99.90;;;;;;7366089;19;20092;-73
2024/02/17 04:47:15;;;;;;;22.45;14.90;;;8.60;99.90;;;;;;7367729;19;20022;-73
2024/02/17 04:49:41;;;;;;;29.38;15.38;;;8.50;99.90;;;;;;7370553;19;20818;-72
2024/02/17 04:52:07;;;;;;;30.83;15.75;;;8.60;99.90;;;;;;7369833;19;20030;-72
2024/02/17 04:54:34;;;;;;;25.23;14.38;;;8.50;99.90;;;;;;7370110;19;20023;-72
2024/02/17 04:57:00;;;;;;;25.55;13.73;;;8.50;99.90;;;;;;7374740;19;20381;-73
2024/02/17 04:59:26;;;;;;;25.50;14.48;;;8.50;99.90;;;;;;7372826;19;20078;-73
2024/02/17 05:01:52;;;;;;;26.13;15.55;;;8.40;99.90;;;;;;7374431;19;20018;-72
2024/02/17 05:04:19;;;;;;;25.73;14.27;;;8.50;99.90;;;;;;7382712;19;20014;-72
2024/02/17 05:06:48;;;;;;;23.38;14.82;;;8.40;99.90;;;;;;7389177;19;20022;-71
2024/02/17 05:09:15;;;;;;;22.50;14.15;;;8.40;99.90;;;;;;7383711;19;20104;-71
2024/02/17 05:11:41;;;;;;;22.80;14.43;;;8.40;99.90;;;;;;7385298;19;20086;-71
2024/02/17 05:14:07;;;;;;;20.75;13.32;;;8.30;99.90;;;;;;7382629;19;20019;-70
2024/02/17 05:16:34;;;;;;;19.33;13.18;;;8.30;99.90;;;;;;7372665;19;20031;-71
2024/02/17 05:19:00;;;;;;;20.38;12.13;;;8.30;99.90;;;;;;7369644;19;20027;-70
2024/02/17 05:21:28;;;;;;;19.08;12.68;;;8.30;99.90;;;;;;7366939;19;20026;-70
2024/02/17 05:23:54;;;;;;;18.73;11.23;;;8.30;99.90;;;;;;7371542;19;20023;-70
2024/02/17 05:26:20;;;;;;;15.38;11.43;;;8.20;99.90;;;;;;7377639;19;20494;-70
2024/02/17 05:28:46;;;;;;;18.27;11.77;;;8.20;99.90;;;;;;7381336;19;20041;-70
2024/02/17 05:31:27;;;;;;;15.45;10.25;;;8.20;99.90;;;;;;7381940;19;20019;-70
2024/02/17 05:33:54;;;;;;;15.55;10.57;;;8.20;99.90;;;;;;7379642;19;20018;-71
2024/02/17 05:36:22;;;;;;;14.23;9.82;;;8.10;99.90;;;;;;7386183;19;20015;-70
2024/02/17 05:38:49;;;;;;;13.82;9.82;;;8.10;99.90;;;;;;7371398;19;20053;-71
2024/02/17 05:41:17;;;;;;;15.60;8.90;;;8.00;99.90;;;;;;7370100;19;20695;-71
2024/02/17 05:43:44;;;;;;;14.90;9.95;;;8.00;99.90;;;;;;7375292;19;20082;-70
2024/02/17 05:46:11;;;;;;;13.57;8.82;;;8.00;99.90;;;;;;7389196;19;20541;-70
2024/02/17 05:48:38;;;;;;;13.13;9.23;;;8.00;99.90;;;;;;7390119;19;20491;-70
2024/02/17 05:51:05;;;;;;;14.32;9.18;;;8.00;99.90;;;;;;7388809;19;20094;-70
2024/02/17 05:53:32;;;;;;;13.65;9.18;;;8.00;99.90;;;;;;7389827;19;20011;-70
2024/02/17 05:55:59;;;;;;;13.75;9.02;;;8.00;99.90;;;;;;7386511;19;20039;-70
2024/02/17 05:58:26;;;;;;;14.48;9.18;;;8.00;99.90;;;;;;7387792;19;20017;-70
2024/02/17 06:00:59;;;;;;;14.65;8.30;;;8.00;99.90;;;;;;7393623;19;20020;-69
2024/02/17 06:03:27;;;;;;;13.27;7.75;;;8.00;99.90;;;;;;7394664;19;20031;-70
2024/02/17 06:05:54;;;;;;;15.40;8.00;;;8.00;99.90;;;;;;7382620;19;20026;-71
2024/02/17 06:08:21;;;;;;;13.85;7.43;;;8.00;99.90;;;;;;7387282;19;20022;-70
2024/02/17 06:10:49;;;;;;;11.10;7.35;;;7.90;99.90;;;;;;7392116;19;20026;-70
2024/02/17 06:13:16;;;;;;;9.07;7.03;;;7.90;99.90;;;;;;7393949;19;20019;-70
2024/02/17 06:15:43;;;;;;;13.20;7.38;;;7.90;99.90;;;;;;7393962;19;20018;-71
2024/02/17 06:21:15;;;;;;;11.27;7.60;;;7.90;99.90;;;;;;7385291;19;20089;-71
2024/02/17 06:23:44;;;;;;;9.65;7.22;;;7.90;99.90;;;;;;7373680;19;20471;-72
2024/02/17 06:26:25;;;;;;;12.40;8.68;;;7.90;99.90;;;;;;7379340;19;20018;-71
2024/02/17 06:28:53;;;;;;;11.20;7.85;;;7.80;99.90;;;;;;7375880;19;20610;-72
2024/02/17 06:31:20;;;;;;;12.73;7.13;;;7.90;99.90;;;;;;7396297;19;20434;-70
2024/02/17 06:33:48;;;;;;;11.88;8.23;;;7.90;99.90;;;;;;7392205;19;20515;-72
2024/02/17 06:36:15;;;;;;;12.93;7.38;;;7.80;99.90;;;;;;7395709;19;20038;-71
2024/02/17 06:38:42;;;;;;;9.25;6.65;;;7.80;99.90;;;;;;7393223;19;20503;-72
2024/02/17 06:41:11;;;;;;;11.32;7.05;;;7.90;99.90;;;;;;7388177;19;20029;-73
2024/02/17 06:43:41;;;;;;;9.85;6.80;;;7.80;99.90;;;;;;7397349;19;20014;-71
2024/02/17 06:46:07;;;;;;;10.55;5.97;;;7.80;99.90;;;;;;7394687;19;20019;-73
2024/02/17 06:48:34;;;;;;;8.95;6.35;;;7.80;99.90;;;;;;7376086;19;20014;-71
2024/02/17 06:51:02;;;;;;;11.05;6.75;;;7.80;99.90;;;;;;7383554;19;20018;-72
2024/02/17 06:53:28;;;;;;;11.10;6.68;;;7.80;99.90;;;;;;7383919;19;20018;-72
2024/02/17 06:55:54;;;;;;;7.57;5.88;;;7.80;99.90;;;;;;7376534;19;20022;-72
2024/02/17 06:58:20;;;;;;;10.02;6.00;;;7.80;99.90;;;;;;7380805;19;20026;-72
2024/02/17 07:00:47;;;;;;;10.70;5.63;;;7.80;99.90;;;;;;7394386;19;20021;-72
2024/02/17 07:03:14;;;;;;;10.23;5.43;;;7.80;99.90;;;;;;7380045;19;20026;-71
2024/02/17 07:05:41;;;;;;;8.98;5.43;;;7.80;99.90;;;;;;7393350;19;20010;-71
2024/02/17 07:08:11;;;;;;;7.88;4.80;;;7.80;99.90;;;;;;7391776;19;20021;-73
2024/02/17 07:10:38;;;;;;;9.63;5.82;;;7.80;99.90;;;;;;7388378;19;20426;-73
2024/02/17 07:13:09;;;;;;;9.68;5.38;;;7.80;99.90;;;;;;7385917;19;20032;-73
2024/02/17 07:15:36;;;;;;;9.80;5.90;;;7.80;99.90;;;;;;7376299;19;20477;-73
2024/02/17 07:18:03;;;;;;;9.02;5.43;;;7.80;99.90;;;;;;7377393;19;20034;-73
2024/02/17 07:20:33;;;;;;;10.73;5.45;;;7.80;99.90;;;;;;7380425;19;20015;-71
2024/02/17 07:23:00;;;;;;;10.02;5.28;;;7.80;99.90;;;;;;7389949;19;20582;-73
2024/02/17 07:25:29;;;;;;;6.97;4.00;;;7.80;99.90;;;;;;7374225;19;20093;-73
2024/02/17 07:27:59;;;;;;;6.82;3.55;;;7.80;99.90;;;;;;7373316;19;20793;-73
2024/02/17 07:30:27;;;;;;;5.97;3.63;;;7.80;99.90;;;;;;7376299;19;20026;-71
2024/02/17 07:32:54;;;;;;;10.43;3.17;;;7.80;99.90;;;;;;7395160;19;20479;-70
2024/02/17 07:35:23;;;;;;;5.20;2.95;;;7.80;99.90;;;;;;7388843;19;20018;-75
2024/02/17 07:37:50;;;;;;;6.32;3.53;;;7.90;99.90;;;;;;7391971;19;20018;-71
2024/02/17 07:40:16;;;;;;;6.13;3.20;;;7.90;99.90;;;;;;7387736;19;20483;-71
2024/02/17 07:42:42;;;;;;;4.50;3.22;;;7.90;99.90;;;;;;7388538;19;20055;-71
2024/02/17 07:45:09;;;;;;;5.85;3.25;;;7.90;99.90;;;;;;7390315;19;20014;-71
2024/02/17 07:47:37;;;;;;;6.78;3.20;;;7.90;99.90;;;;;;7388281;19;20017;-72
2024/02/17 07:50:07;;;;;;;6.82;3.35;;;8.00;99.90;;;;;;7386017;19;20007;-72
2024/02/17 07:52:35;;;;;;;3.85;2.83;;;8.00;99.90;;;;;;7389313;19;20364;-71
2024/02/17 07:55:03;;;;;;;7.35;3.38;;;8.00;99.90;;;;;;7375895;19;20031;-73
2024/02/17 07:57:31;;;;;;;7.15;3.13;;;8.00;99.90;;;;;;7371976;19;20074;-74
2024/02/17 07:59:58;;;;;;;7.22;3.28;;;8.00;99.90;;;;;;7372986;19;20023;-69
2024/02/17 08:02:26;;;;;;;5.20;3.20;;;8.10;99.90;;;;;;7386882;19;20026;-72
2024/02/17 08:04:55;;;;;;;5.72;3.20;;;8.00;99.90;;;;;;7385212;19;20018;-71
2024/02/17 08:07:22;;;;;;;7.10;3.17;;;8.00;99.90;;;;;;7375365;19;20084;-73
2024/02/17 08:09:49;;;;;;;7.65;3.13;;;8.00;99.90;;;;;;7368190;19;20791;-73
2024/02/17 08:12:16;;;;;;;4.35;2.80;;;8.00;99.90;;;;;;7372097;19;20089;-73
2024/02/17 08:14:43;;;;;;;5.60;3.17;;;8.00;99.90;;;;;;7373409;19;20014;-73
2024/02/17 08:17:10;;;;;;;6.93;3.30;;;8.10;99.90;;;;;;7380379;19;20390;-71
2024/02/17 08:19:38;;;;;;;6.50;3.20;;;8.20;99.90;;;;;;7385211;19;20546;-73
2024/02/17 08:22:05;;;;;;;6.25;2.85;;;8.30;99.90;;;;;;7386884;19;20052;-72
2024/02/17 08:24:32;;;;;;;5.22;3.67;;;8.30;99.90;;;;;;7380698;19;20014;-73
2024/02/17 08:27:00;;;;;;;7.80;3.20;;;8.30;99.90;;;;;;7375034;19;20014;-73
2024/02/17 08:29:26;;;;;;;9.65;3.47;;;8.40;99.90;;;;;;7369370;19;20839;-70
2024/02/17 08:31:52;;;;;;;5.25;3.10;;;8.50;99.90;;;;;;7380623;19;22404;-73
2024/02/17 08:34:19;;;;;;;5.60;2.72;;;8.50;99.90;;;;;;7370635;19;20146;-73
2024/02/17 08:36:45;;;;;;;9.70;4.00;;;8.40;99.90;;;;;;7382327;19;20025;-73
2024/02/17 08:39:14;;;;;;;7.30;2.53;;;8.40;99.90;;;;;;7378314;19;20026;-72
2024/02/17 08:41:41;;;;;;;6.22;2.80;;;8.40;99.90;;;;;;7385253;19;20475;-72
2024/02/17 08:44:07;;;;;;;7.95;2.88;;;8.50;99.90;;;;;;7387683;19;20018;-72
2024/02/17 08:46:34;;;;;;;5.55;2.95;;;8.60;99.90;;;;;;7386142;19;20015;-73
2024/02/17 08:49:00;;;;;;;7.15;3.17;;;8.50;99.90;;;;;;7388769;19;20021;-72
2024/02/17 08:51:26;;;;;;;8.18;3.28;;;8.50;99.90;;;;;;7387931;19;20538;-73
2024/02/17 08:53:53;;;;;;;5.95;3.13;;;8.60;99.90;;;;;;7388191;19;20369;-72
2024/02/17 08:56:20;;;;;;;8.05;3.10;;;8.50;99.90;;;;;;7387702;19;20066;-71
2024/02/17 08:58:47;;;;;;;6.68;3.42;;;8.60;99.90;;;;;;7386872;19;20486;-73
2024/02/17 09:01:14;;;;;;;6.38;2.85;;;8.60;99.90;;;;;;7388670;19;20102;-73
2024/02/17 09:03:44;;;;;;;6.22;2.85;;;8.60;99.90;;;;;;7388524;19;20010;-72
2024/02/17 09:06:10;;;;;;;5.65;2.95;;;8.70;99.90;;;;;;7372966;19;20018;-74
2024/02/17 09:08:37;;;;;;;6.85;3.10;;;8.70;99.90;;;;;;7376134;19;20015;-72
2024/02/17 09:11:04;;;;;;;17.55;10.70;;;8.80;99.90;;;;;;7383757;19;21536;-68
2024/02/17 09:13:30;;;;;;;7.00;3.28;;;8.80;99.90;;;;;;7376721;19;20032;-69
2024/02/17 09:15:56;;;;;;;6.75;3.03;;;8.70;99.90;;;;;;7366540;19;20023;-70
2024/02/17 09:18:23;;;;;;;5.95;2.60;;;8.80;99.90;;;;;;7367952;19;20025;-66
2024/02/17 09:20:50;;;;;;;9.68;3.15;;;8.70;99.90;;;;;;7378146;19;20025;-66
2024/02/17 09:23:17;;;;;;;11.18;2.70;;;8.60;99.90;;;;;;7373626;19;20025;-72
2024/02/17 09:25:43;;;;;;;3.85;2.30;;;8.60;99.90;;;;;;7370967;19;20356;-68
2024/02/17 09:28:10;;;;;;;6.57;2.60;;;8.70;99.90;;;;;;7374408;19;20471;-66
2024/02/17 09:30:38;;;;;;;6.45;2.20;;;8.80;99.90;;;;;;7370032;19;20485;-71
2024/02/17 09:33:04;;;;;;;5.50;2.33;;;8.80;99.90;;;;;;7372030;19;20823;-67
2024/02/17 09:35:31;;;;;;;5.22;1.80;;;9.00;99.90;;;;;;7379454;19;20770;-70
2024/02/17 09:37:57;;;;;;;4.40;1.80;;;9.10;99.90;;;;;;7379992;19;20028;-67
2024/02/17 09:40:24;;;;;;;2.47;1.67;;;9.10;99.90;;;;;;7378216;19;20043;-71
2024/02/17 09:42:50;;;;;;;5.75;2.10;;;9.20;99.90;;;;;;7378966;19;20030;-71
2024/02/17 09:45:17;;;;;;;6.38;2.30;;;9.00;99.90;;;;;;7381438;19;20022;-67
2024/02/17 09:47:45;;;;;;;6.68;2.05;;;9.10;99.90;;;;;;7381136;19;20107;-67
2024/02/17 09:50:16;;;;;;;6.07;2.33;;;9.00;99.90;;;;;;7376778;19;20022;-67
2024/02/17 09:52:42;;;;;;;5.15;2.25;;;9.10;99.90;;;;;;7382193;19;20062;-67
2024/02/17 09:55:09;;;;;;;3.45;1.77;;;9.20;99.90;;;;;;7382224;19;20074;-66
2024/02/17 09:57:38;;;;;;;5.22;2.10;;;9.30;99.90;;;;;;7378000;19;20017;-68
2024/02/17 10:00:08;;;;;;;5.15;2.58;;;9.30;99.90;;;;;;7382336;19;20590;-68
2024/02/17 10:02:38;;;;;;;3.85;2.00;;;9.50;99.90;;;;;;7378468;19;20015;-67
2024/02/17 10:05:08;;;;;;;4.93;1.90;;;9.50;99.90;;;;;;7384300;19;20014;-67
2024/02/17 10:07:50;;;;;;;5.00;2.45;;;9.40;99.90;;;;;;7381514;19;20017;-67
2024/02/17 10:10:18;;;;;;;4.85;2.72;;;9.30;99.90;;;;;;7376631;19;20014;-70
2024/02/17 10:12:52;;;;;;;3.45;1.67;;;9.20;99.90;;;;;;7379503;19;20068;-67
2024/02/17 10:15:21;;;;;;;7.60;2.20;;;9.10;99.90;;;;;;7382593;19;20451;-67
2024/02/17 10:17:48;;;;;;;5.35;2.00;;;9.30;99.90;;;;;;7380021;19;20486;-67
2024/02/17 10:20:15;;;;;;;7.85;2.55;;;9.30;99.90;;;;;;7381372;19;20540;-68
2024/02/17 10:22:45;;;;;;;6.18;2.05;;;9.40;99.90;;;;;;7381116;19;20022;-66
2024/02/17 10:25:13;;;;;;;3.17;2.10;;;9.50;99.90;;;;;;7381681;19;20374;-67
2024/02/17 10:27:40;;;;;;;5.18;2.50;;;9.60;99.90;;;;;;7381904;19;20505;-67
2024/02/17 10:30:16;;;;;;;4.88;2.33;;;9.80;99.90;;;;;;7374984;19;20018;-72
2024/02/17 10:32:44;;;;;;;6.13;2.30;;;9.80;99.90;;;;;;7376721;19;20018;-66
2024/02/17 10:35:11;;;;;;;4.32;2.25;;;9.70;99.90;;;;;;7376570;19;20778;-67
2024/02/17 10:37:40;;;;;;;4.90;2.30;;;9.80;99.90;;;;;;7379328;19;20015;-66
2024/02/17 10:40:12;;;;;;;3.78;2.20;;;9.90;99.90;;;;;;7377737;19;20047;-69
2024/02/17 10:42:39;;;;;;;3.83;1.92;;;9.80;99.90;;;;;;7375918;19;20018;-66
2024/02/17 10:45:06;;;;;;;5.25;2.40;;;9.90;99.90;;;;;;7375032;19;20050;-67
2024/02/17 10:47:36;;;;;;;4.28;2.15;;;10.00;99.90;;;;;;7374574;19;20117;-70
2024/02/17 10:50:18;;;;;;;6.22;2.53;;;10.20;99.90;;;;;;7374822;19;20433;-66
2024/02/17 10:52:51;;;;;;;6.82;2.53;;;10.40;99.90;;;;;;7382019;19;20014;-66
2024/02/17 10:55:25;;;;;;;6.03;2.03;;;10.60;99.90;;;;;;7375976;19;20017;-67
2024/02/17 10:57:55;;;;;;;5.60;2.10;;;10.60;99.90;;;;;;7375827;19;20019;-71
2024/02/17 11:00:22;;;;;;;3.75;2.33;;;10.60;99.90;;;;;;7376574;19;20797;-71
2024/02/17 11:02:53;;;;;;;6.22;2.03;;;10.60;99.90;;;;;;7379850;19;20074;-68
2024/02/17 11:05:21;;;;;;;7.10;2.65;;;10.60;99.90;;;;;;7376318;19;20046;-68
2024/02/17 11:07:48;;;;;;;6.78;2.33;;;10.70;99.90;;;;;;7376840;19;20395;-69
2024/02/17 11:10:15;;;;;;;5.13;2.10;;;10.70;99.90;;;;;;7371100;19;20761;-71
2024/02/17 11:12:49;;;;;;;5.40;2.30;;;10.60;99.90;;;;;;7375418;19;20019;-73
2024/02/17 11:15:15;;;;;;;6.70;2.30;;;10.60;99.90;;;;;;7375209;19;20011;-73
2024/02/17 11:17:50;;;;;;;5.43;2.20;;;10.60;99.90;;;;;;7377030;19;20018;-73
2024/02/17 11:20:18;;;;;;;7.03;2.40;;;10.60;99.90;;;;;;7372715;19;20010;-73
2024/02/17 11:22:52;;;;;;;5.15;2.50;;;10.70;99.90;;;;;;7372115;19;20014;-72
2024/02/17 11:25:40;;;;;;;5.68;2.10;;;11.10;99.90;;;;;;7374444;19;20042;-74
2024/02/17 11:28:18;;;;;;;3.13;1.60;;;11.50;99.90;;;;;;7373112;19;20045;-74
2024/02/17 11:31:07;;;;;;;3.75;1.70;;;11.70;99.90;;;;;;7377919;19;20752;-73
2024/02/17 11:33:34;;;;;;;3.08;1.70;;;11.90;99.90;;;;;;7373840;19;20020;-74
2024/02/17 11:36:07;;;;;;;8.77;2.33;;;12.50;99.90;;;;;;7373613;19;20010;-73
2024/02/17 11:38:35;;;;;;;4.25;1.70;;;13.40;99.90;;;;;;7372612;19;20014;-73
2024/02/17 11:41:02;;;;;;;3.10;1.40;;;14.30;99.90;;;;;;7371247;19;20026;-70
2024/02/17 11:43:30;;;;;;;2.17;1.30;;;15.50;99.90;;;;;;7374413;19;20020;-70
2024/02/17 11:45:59;;;;;;;4.05;1.52;;;16.00;99.90;;;;;;7379836;19;20038;-70
2024/02/17 11:48:29;;;;;;;2.00;0.98;;;16.90;99.90;;;;;;7378553;19;20015;-72
2024/02/17 11:51:06;;;;;;;1.73;1.17;;;17.30;99.90;;;;;;7380816;19;20043;-70
2024/02/17 11:53:33;;;;;;;3.90;1.35;;;18.20;99.90;;;;;;7378105;19;20493;-70
2024/02/17 11:56:02;;;;;;;5.85;1.65;;;18.10;99.90;;;;;;7376234;19;20790;-70
2024/02/17 11:58:32;;;;;;;3.40;1.52;;;17.80;99.90;;;;;;7370917;19;20101;-71
2024/02/17 12:00:59;;;;;;;2.40;1.20;;;17.70;99.90;;;;;;7372512;19;20497;-75
2024/02/17 12:03:30;;;;;;;2.88;1.30;;;17.70;99.90;;;;;;7372115;19;21090;-71
2024/02/17 12:06:02;;;;;;;3.70;1.20;;;18.00;99.90;;;;;;7371045;19;20018;-75
2024/02/17 12:08:30;;;;;;;2.97;1.47;;;18.40;99.90;;;;;;7368948;19;20478;-75
2024/02/17 12:10:57;;;;;;;2.90;1.33;;;18.50;99.90;;;;;;7367068;19;20515;-75
2024/02/17 12:13:24;;;;;;;2.00;1.20;;;18.70;99.90;;;;;;7370851;19;20118;-75
2024/02/17 12:15:51;;;;;;;2.50;1.20;;;17.90;99.90;;;;;;7370558;19;20098;-71
2024/02/17 12:18:18;;;;;;;3.38;1.45;;;17.60;99.90;;;;;;7369208;19;20441;-76
2024/02/17 12:20:44;;;;;;;4.47;1.60;;;16.60;99.90;;;;;;7373560;19;20118;-70
2024/02/17 12:23:11;;;;;;;4.32;1.40;;;16.00;99.90;;;;;;7369814;19;20022;-74
2024/02/17 12:25:39;;;;;;;2.33;1.33;;;15.80;99.90;;;;;;7365246;19;20037;-70
2024/02/17 12:28:09;;;;;;;3.95;1.70;;;15.20;99.90;;;;;;7376281;19;20034;-70
2024/02/17 12:30:46;;;;;;;2.08;1.52;;;14.90;99.90;;;;;;7370371;19;20022;-73
2024/02/17 12:33:18;;;;;;;2.33;1.33;;;14.40;99.90;;;;;;7371024;19;20019;-73
2024/02/17 12:35:48;;;;;;;3.72;1.60;;;14.10;99.90;;;;;;7368329;19;20029;-73
2024/02/17 12:38:19;;;;;;;4.90;1.70;;;14.00;99.90;;;;;;7373348;19;20372;-74
2024/02/17 12:40:50;;;;;;;2.78;1.58;;;13.40;99.90;;;;;;7371983;19;20782;-70
2024/02/17 12:43:18;;;;;;;4.70;1.92;;;13.30;99.90;;;;;;7369307;19;20018;-74
2024/02/17 12:45:44;;;;;;;4.60;1.90;;;13.50;99.90;;;;;;7369667;19;20033;-70
2024/02/17 12:48:11;;;;;;;4.15;2.20;;;13.50;99.90;;;;;;7371289;19;20180;-70
2024/02/17 12:50:38;;;;;;;3.45;1.60;;;13.70;99.90;;;;;;7378912;19;20018;-71